sensor_id;sensor_type;location;lat;lon;timestamp;temperature;humidity
9730;DHT22;4904;49.152;11.004;2023-05-02T00:01:21;9.30;99.90
9730;DHT22;4904;49.152;11.004;2023-05-02T00:03:47;9.20;99.90
9730;DHT22;4904;49.152;11.004;2023-05-02T00:06:14;9.10;99.90
9730;DHT22;4904;49.152;11.004;2023-05-02T00:08:42;9.10;99.90
9730;DHT22;4904;49.152;11.004;2023-05-02T00:11:09;9.10;99.90
9730;DHT22;4904;49.152;11.004;2023-05-02T00:13:36;9.10;99.90
9730;DHT22;4904;49.152;11.004;2023-05-02T00:16:04;9.10;99.90
9730;DHT22;4904;49.152;11.004;2023-05-02T00:18:33;9.10;99.90
9730;DHT22;4904;49.152;11.004;2023-05-02T00:21:00;9.00;99.90
9730;DHT22;4904;49.152;11.004;2023-05-02T00:23:27;9.10;99.90
9730;DHT22;4904;49.152;11.004;2023-05-02T00:25:54;9.10;99.90
9730;DHT22;4904;49.152;11.004;2023-05-02T00:28:21;9.10;99.90
9730;DHT22;4904;49.152;11.004;2023-05-02T00:30:48;9.00;99.90
9730;DHT22;4904;49.152;11.004;2023-05-02T00:33:15;9.00;99.90
9730;DHT22;4904;49.152;11.004;2023-05-02T00:35:43;8.80;99.90
9730;DHT22;4904;49.152;11.004;2023-05-02T00:38:10;8.80;99.90
9730;DHT22;4904;49.152;11.004;2023-05-02T00:40:45;8.70;99.90
9730;DHT22;4904;49.152;11.004;2023-05-02T00:43:12;8.60;99.90
9730;DHT22;4904;49.152;11.004;2023-05-02T00:45:41;8.60;99.90
9730;DHT22;4904;49.152;11.004;2023-05-02T00:48:09;8.70;99.90
9730;DHT22;4904;49.152;11.004;2023-05-02T00:50:37;8.50;99.90
9730;DHT22;4904;49.152;11.004;2023-05-02T00:53:06;8.40;99.90
9730;DHT22;4904;49.152;11.004;2023-05-02T00:55:34;8.40;99.90
9730;DHT22;4904;49.152;11.004;2023-05-02T00:58:04;8.40;99.90
9730;DHT22;4904;49.152;11.004;2023-05-02T01:00:49;8.40;99.90
9730;DHT22;4904;49.152;11.004;2023-05-02T01:03:31;8.40;99.90
9730;DHT22;4904;49.152;11.004;2023-05-02T01:06:15;8.40;99.90
9730;DHT22;4904;49.152;11.004;2023-05-02T01:08:58;8.30;99.90
9730;DHT22;4904;49.152;11.004;2023-05-02T01:11:33;8.30;99.90
9730;DHT22;4904;49.152;11.004;2023-05-02T01:14:02;8.30;99.90
9730;DHT22;4904;49.152;11.004;2023-05-02T01:16:31;8.20;99.90
9730;DHT22;4904;49.152;11.004;2023-05-02T01:19:05;8.20;99.90
9730;DHT22;4904;49.152;11.004;2023-05-02T01:21:35;8.20;99.90
9730;DHT22;4904;49.152;11.004;2023-05-02T01:24:09;8.20;99.90
9730;DHT22;4904;49.152;11.004;2023-05-02T01:26:49;8.20;99.90
9730;DHT22;4904;49.152;11.004;2023-05-02T01:29:19;8.20;99.90
9730;DHT22;4904;49.152;11.004;2023-05-02T01:31:49;8.20;99.90
9730;DHT22;4904;49.152;11.004;2023-05-02T01:34:19;8.20;99.90
9730;DHT22;4904;49.152;11.004;2023-05-02T01:36:49;8.20;99.90
9730;DHT22;4904;49.152;11.004;2023-05-02T01:39:19;8.20;99.90
9730;DHT22;4904;49.152;11.004;2023-05-02T01:41:50;8.30;99.90
9730;DHT22;4904;49.152;11.004;2023-05-02T01:44:21;8.20;99.90
9730;DHT22;4904;49.152;11.004;2023-05-02T01:46:50;8.30;99.90
9730;DHT22;4904;49.152;11.004;2023-05-02T01:49:18;8.20;99.90
9730;DHT22;4904;49.152;11.004;2023-05-02T01:51:48;8.20;99.90
9730;DHT22;4904;49.152;11.004;2023-05-02T01:54:17;8.10;99.90
9730;DHT22;4904;49.152;11.004;2023-05-02T01:56:44;8.20;99.90
9730;DHT22;4904;49.152;11.004;2023-05-02T01:59:18;8.10;99.90
9730;DHT22;4904;49.152;11.004;2023-05-02T02:01:48;8.00;99.90
9730;DHT22;4904;49.152;11.004;2023-05-02T02:04:18;7.80;99.90
9730;DHT22;4904;49.152;11.004;2023-05-02T02:06:49;7.70;99.90
9730;DHT22;4904;49.152;11.004;2023-05-02T02:09:17;7.50;99.90
9730;DHT22;4904;49.152;11.004;2023-05-02T02:11:48;7.40;99.90
9730;DHT22;4904;49.152;11.004;2023-05-02T02:14:20;7.40;99.90
9730;DHT22;4904;49.152;11.004;2023-05-02T02:16:50;7.50;99.90
9730;DHT22;4904;49.152;11.004;2023-05-02T02:19:20;7.40;99.90
9730;DHT22;4904;49.152;11.004;2023-05-02T02:21:49;7.50;99.90
9730;DHT22;4904;49.152;11.004;2023-05-02T02:24:20;7.60;99.90
9730;DHT22;4904;49.152;11.004;2023-05-02T02:26:48;7.70;99.90
9730;DHT22;4904;49.152;11.004;2023-05-02T02:29:16;7.60;99.90
9730;DHT22;4904;49.152;11.004;2023-05-02T02:31:44;7.70;99.90
9730;DHT22;4904;49.152;11.004;2023-05-02T02:34:12;7.70;99.90
9730;DHT22;4904;49.152;11.004;2023-05-02T02:36:44;7.70;99.90
9730;DHT22;4904;49.152;11.004;2023-05-02T02:39:17;7.80;99.90
9730;DHT22;4904;49.152;11.004;2023-05-02T02:41:54;7.80;99.90
9730;DHT22;4904;49.152;11.004;2023-05-02T02:44:36;7.80;99.90
9730;DHT22;4904;49.152;11.004;2023-05-02T02:47:09;7.80;99.90
9730;DHT22;4904;49.152;11.004;2023-05-02T02:49:48;7.90;99.90
9730;DHT22;4904;49.152;11.004;2023-05-02T02:52:20;7.90;99.90
9730;DHT22;4904;49.152;11.004;2023-05-02T02:54:54;7.90;99.90
9730;DHT22;4904;49.152;11.004;2023-05-02T02:57:33;8.00;99.90
9730;DHT22;4904;49.152;11.004;2023-05-02T03:00:08;7.90;99.90
9730;DHT22;4904;49.152;11.004;2023-05-02T03:02:38;7.90;99.90
9730;DHT22;4904;49.152;11.004;2023-05-02T03:05:10;8.00;99.90
9730;DHT22;4904;49.152;11.004;2023-05-02T03:07:37;8.10;99.90
9730;DHT22;4904;49.152;11.004;2023-05-02T03:10:05;8.00;99.90
9730;DHT22;4904;49.152;11.004;2023-05-02T03:12:32;8.00;99.90
9730;DHT22;4904;49.152;11.004;2023-05-02T03:15:08;8.00;99.90
9730;DHT22;4904;49.152;11.004;2023-05-02T03:17:40;8.00;99.90
9730;DHT22;4904;49.152;11.004;2023-05-02T03:20:09;7.90;99.90
9730;DHT22;4904;49.152;11.004;2023-05-02T03:22:36;7.90;99.90
9730;DHT22;4904;49.152;11.004;2023-05-02T03:25:04;7.90;99.90
9730;DHT22;4904;49.152;11.004;2023-05-02T03:27:31;7.90;99.90
9730;DHT22;4904;49.152;11.004;2023-05-02T03:29:58;7.90;99.90
9730;DHT22;4904;49.152;11.004;2023-05-02T03:32:25;7.90;99.90
9730;DHT22;4904;49.152;11.004;2023-05-02T03:34:52;7.90;99.90
9730;DHT22;4904;49.152;11.004;2023-05-02T03:37:24;7.90;99.90
9730;DHT22;4904;49.152;11.004;2023-05-02T03:39:51;7.90;99.90
9730;DHT22;4904;49.152;11.004;2023-05-02T03:42:18;7.90;99.90
9730;DHT22;4904;49.152;11.004;2023-05-02T03:44:45;7.80;99.90
9730;DHT22;4904;49.152;11.004;2023-05-02T03:47:12;7.90;99.90
9730;DHT22;4904;49.152;11.004;2023-05-02T03:49:39;7.90;99.90
9730;DHT22;4904;49.152;11.004;2023-05-02T03:52:06;7.80;99.90
9730;DHT22;4904;49.152;11.004;2023-05-02T03:54:35;7.60;99.90
9730;DHT22;4904;49.152;11.004;2023-05-02T03:57:02;7.60;99.90
9730;DHT22;4904;49.152;11.004;2023-05-02T03:59:31;7.60;99.90
9730;DHT22;4904;49.152;11.004;2023-05-02T04:01:58;7.70;99.90
9730;DHT22;4904;49.152;11.004;2023-05-02T04:04:25;7.70;99.90
9730;DHT22;4904;49.152;11.004;2023-05-02T04:06:52;7.60;99.90
9730;DHT22;4904;49.152;11.004;2023-05-02T04:09:19;7.60;99.90
9730;DHT22;4904;49.152;11.004;2023-05-02T04:11:51;7.60;99.90
9730;DHT22;4904;49.152;11.004;2023-05-02T04:14:18;7.50;99.90
9730;DHT22;4904;49.152;11.004;2023-05-02T04:16:47;7.60;99.90
9730;DHT22;4904;49.152;11.004;2023-05-02T04:19:14;7.60;99.90
9730;DHT22;4904;49.152;11.004;2023-05-02T04:21:43;7.60;99.90
9730;DHT22;4904;49.152;11.004;2023-05-02T04:24:10;7.70;99.90
9730;DHT22;4904;49.152;11.004;2023-05-02T04:26:37;7.70;99.90
9730;DHT22;4904;49.152;11.004;2023-05-02T04:29:06;7.70;99.90
9730;DHT22;4904;49.152;11.004;2023-05-02T04:31:33;7.60;99.90
9730;DHT22;4904;49.152;11.004;2023-05-02T04:34:00;7.70;99.90
9730;DHT22;4904;49.152;11.004;2023-05-02T04:36:28;7.60;99.90
9730;DHT22;4904;49.152;11.004;2023-05-02T04:38:55;7.70;99.90
9730;DHT22;4904;49.152;11.004;2023-05-02T04:41:22;7.70;99.90
9730;DHT22;4904;49.152;11.004;2023-05-02T04:43:49;7.70;99.90
9730;DHT22;4904;49.152;11.004;2023-05-02T04:46:18;7.70;99.90
9730;DHT22;4904;49.152;11.004;2023-05-02T04:48:45;7.60;99.90
9730;DHT22;4904;49.152;11.004;2023-05-02T04:51:12;7.60;99.90
9730;DHT22;4904;49.152;11.004;2023-05-02T04:53:39;7.50;99.90
9730;DHT22;4904;49.152;11.004;2023-05-02T04:56:07;7.50;99.90
9730;DHT22;4904;49.152;11.004;2023-05-02T04:58:34;7.50;99.90
9730;DHT22;4904;49.152;11.004;2023-05-02T05:01:01;7.60;99.90
9730;DHT22;4904;49.152;11.004;2023-05-02T05:03:29;7.60;99.90
9730;DHT22;4904;49.152;11.004;2023-05-02T05:05:57;7.70;99.90
9730;DHT22;4904;49.152;11.004;2023-05-02T05:08:25;7.80;99.90
9730;DHT22;4904;49.152;11.004;2023-05-02T05:10:52;7.80;99.90
9730;DHT22;4904;49.152;11.004;2023-05-02T05:13:19;7.90;99.90
9730;DHT22;4904;49.152;11.004;2023-05-02T05:15:46;7.90;99.90
9730;DHT22;4904;49.152;11.004;2023-05-02T05:18:13;8.00;99.90
9730;DHT22;4904;49.152;11.004;2023-05-02T05:20:42;8.10;99.90
9730;DHT22;4904;49.152;11.004;2023-05-02T05:23:08;8.10;99.90
9730;DHT22;4904;49.152;11.004;2023-05-02T05:25:35;8.20;99.90
9730;DHT22;4904;49.152;11.004;2023-05-02T05:28:03;8.30;99.90
9730;DHT22;4904;49.152;11.004;2023-05-02T05:30:30;8.40;99.90
9730;DHT22;4904;49.152;11.004;2023-05-02T05:32:57;8.40;99.90
9730;DHT22;4904;49.152;11.004;2023-05-02T05:35:25;8.50;99.90
9730;DHT22;4904;49.152;11.004;2023-05-02T05:37:53;8.50;99.90
9730;DHT22;4904;49.152;11.004;2023-05-02T05:40:20;8.60;99.90
9730;DHT22;4904;49.152;11.004;2023-05-02T05:42:47;8.70;99.90
9730;DHT22;4904;49.152;11.004;2023-05-02T05:45:14;8.70;99.90
9730;DHT22;4904;49.152;11.004;2023-05-02T05:47:44;8.80;99.90
9730;DHT22;4904;49.152;11.004;2023-05-02T05:50:10;8.90;99.90
9730;DHT22;4904;49.152;11.004;2023-05-02T05:52:37;9.00;99.90
9730;DHT22;4904;49.152;11.004;2023-05-02T05:55:07;9.10;99.90
9730;DHT22;4904;49.152;11.004;2023-05-02T05:57:34;9.20;99.90
9730;DHT22;4904;49.152;11.004;2023-05-02T06:00:01;9.30;99.90
9730;DHT22;4904;49.152;11.004;2023-05-02T06:02:29;9.40;99.90
9730;DHT22;4904;49.152;11.004;2023-05-02T06:04:56;9.40;99.90
9730;DHT22;4904;49.152;11.004;2023-05-02T06:07:23;9.60;99.90
9730;DHT22;4904;49.152;11.004;2023-05-02T06:09:51;9.50;99.90
9730;DHT22;4904;49.152;11.004;2023-05-02T06:12:19;9.50;99.90
9730;DHT22;4904;49.152;11.004;2023-05-02T06:14:47;9.50;99.90
9730;DHT22;4904;49.152;11.004;2023-05-02T06:17:14;9.50;99.90
9730;DHT22;4904;49.152;11.004;2023-05-02T06:19:41;9.70;99.90
9730;DHT22;4904;49.152;11.004;2023-05-02T06:22:10;9.70;99.90
9730;DHT22;4904;49.152;11.004;2023-05-02T06:24:37;9.80;99.90
9730;DHT22;4904;49.152;11.004;2023-05-02T06:27:04;9.80;99.90
9730;DHT22;4904;49.152;11.004;2023-05-02T06:29:33;9.90;99.90
9730;DHT22;4904;49.152;11.004;2023-05-02T06:32:00;9.90;99.90
9730;DHT22;4904;49.152;11.004;2023-05-02T06:34:30;9.90;99.90
9730;DHT22;4904;49.152;11.004;2023-05-02T06:36:57;10.10;99.90
9730;DHT22;4904;49.152;11.004;2023-05-02T06:39:24;10.00;99.90
9730;DHT22;4904;49.152;11.004;2023-05-02T06:41:55;10.10;99.90
9730;DHT22;4904;49.152;11.004;2023-05-02T06:44:23;10.20;99.90
9730;DHT22;4904;49.152;11.004;2023-05-02T06:46:51;10.30;99.90
9730;DHT22;4904;49.152;11.004;2023-05-02T06:49:20;10.30;99.90
9730;DHT22;4904;49.152;11.004;2023-05-02T06:51:47;10.40;99.90
9730;DHT22;4904;49.152;11.004;2023-05-02T06:54:15;10.40;99.90
9730;DHT22;4904;49.152;11.004;2023-05-02T06:56:42;10.40;99.90
9730;DHT22;4904;49.152;11.004;2023-05-02T06:59:09;10.50;99.90
9730;DHT22;4904;49.152;11.004;2023-05-02T07:01:36;10.50;99.90
9730;DHT22;4904;49.152;11.004;2023-05-02T07:04:05;10.60;99.90
9730;DHT22;4904;49.152;11.004;2023-05-02T07:06:32;10.60;99.90
9730;DHT22;4904;49.152;11.004;2023-05-02T07:08:59;10.60;99.90
9730;DHT22;4904;49.152;11.004;2023-05-02T07:11:27;10.70;99.90
9730;DHT22;4904;49.152;11.004;2023-05-02T07:13:54;10.70;99.90
9730;DHT22;4904;49.152;11.004;2023-05-02T07:16:21;10.80;99.90
9730;DHT22;4904;49.152;11.004;2023-05-02T07:18:48;10.80;99.90
9730;DHT22;4904;49.152;11.004;2023-05-02T07:21:16;10.90;99.90
9730;DHT22;4904;49.152;11.004;2023-05-02T07:23:43;11.00;99.90
9730;DHT22;4904;49.152;11.004;2023-05-02T07:26:10;11.00;99.90
9730;DHT22;4904;49.152;11.004;2023-05-02T07:28:38;11.00;99.90
9730;DHT22;4904;49.152;11.004;2023-05-02T07:31:05;11.10;99.90
9730;DHT22;4904;49.152;11.004;2023-05-02T07:33:32;11.20;99.90
9730;DHT22;4904;49.152;11.004;2023-05-02T07:36:00;11.20;99.90
9730;DHT22;4904;49.152;11.004;2023-05-02T07:38:29;11.20;99.90
9730;DHT22;4904;49.152;11.004;2023-05-02T07:40:57;11.20;99.90
9730;DHT22;4904;49.152;11.004;2023-05-02T07:43:24;11.30;99.90
9730;DHT22;4904;49.152;11.004;2023-05-02T07:45:51;11.20;99.90
9730;DHT22;4904;49.152;11.004;2023-05-02T07:48:18;11.30;99.90
9730;DHT22;4904;49.152;11.004;2023-05-02T07:50:45;11.20;99.90
9730;DHT22;4904;49.152;11.004;2023-05-02T07:53:12;11.20;99.90
9730;DHT22;4904;49.152;11.004;2023-05-02T07:55:41;11.20;99.90
9730;DHT22;4904;49.152;11.004;2023-05-02T07:58:07;11.30;99.90
9730;DHT22;4904;49.152;11.004;2023-05-02T08:00:34;11.30;99.90
9730;DHT22;4904;49.152;11.004;2023-05-02T08:03:01;11.20;99.90
9730;DHT22;4904;49.152;11.004;2023-05-02T08:05:28;11.20;99.90
9730;DHT22;4904;49.152;11.004;2023-05-02T08:07:55;11.20;99.90
9730;DHT22;4904;49.152;11.004;2023-05-02T08:10:22;11.10;99.90
9730;DHT22;4904;49.152;11.004;2023-05-02T08:12:51;11.20;99.90
9730;DHT22;4904;49.152;11.004;2023-05-02T08:15:18;11.20;99.90
9730;DHT22;4904;49.152;11.004;2023-05-02T08:17:45;11.20;99.90
9730;DHT22;4904;49.152;11.004;2023-05-02T08:20:12;11.20;99.90
9730;DHT22;4904;49.152;11.004;2023-05-02T08:22:40;11.20;99.90
9730;DHT22;4904;49.152;11.004;2023-05-02T08:25:07;11.30;99.90
9730;DHT22;4904;49.152;11.004;2023-05-02T08:27:35;11.40;99.90
9730;DHT22;4904;49.152;11.004;2023-05-02T08:30:04;11.60;99.90
9730;DHT22;4904;49.152;11.004;2023-05-02T08:32:32;11.50;99.90
9730;DHT22;4904;49.152;11.004;2023-05-02T08:34:59;11.50;99.90
9730;DHT22;4904;49.152;11.004;2023-05-02T08:37:27;11.60;99.90
9730;DHT22;4904;49.152;11.004;2023-05-02T08:39:53;11.60;99.90
9730;DHT22;4904;49.152;11.004;2023-05-02T08:42:21;11.70;99.90
9730;DHT22;4904;49.152;11.004;2023-05-02T08:44:48;11.70;99.90
9730;DHT22;4904;49.152;11.004;2023-05-02T08:47:17;11.70;99.90
9730;DHT22;4904;49.152;11.004;2023-05-02T08:49:46;11.60;99.90
9730;DHT22;4904;49.152;11.004;2023-05-02T08:52:14;11.70;99.90
9730;DHT22;4904;49.152;11.004;2023-05-02T08:54:44;11.70;99.90
9730;DHT22;4904;49.152;11.004;2023-05-02T08:57:11;11.60;99.90
9730;DHT22;4904;49.152;11.004;2023-05-02T08:59:38;11.70;99.90
9730;DHT22;4904;49.152;11.004;2023-05-02T09:02:11;11.80;99.90
9730;DHT22;4904;49.152;11.004;2023-05-02T09:04:42;11.90;99.90
9730;DHT22;4904;49.152;11.004;2023-05-02T09:07:10;11.90;99.90
9730;DHT22;4904;49.152;11.004;2023-05-02T09:09:37;11.90;99.90
9730;DHT22;4904;49.152;11.004;2023-05-02T09:12:04;11.90;99.90
9730;DHT22;4904;49.152;11.004;2023-05-02T09:14:32;12.10;99.90
9730;DHT22;4904;49.152;11.004;2023-05-02T09:16:59;12.30;99.90
9730;DHT22;4904;49.152;11.004;2023-05-02T09:19:27;12.60;99.90
9730;DHT22;4904;49.152;11.004;2023-05-02T09:22:00;12.60;99.90
9730;DHT22;4904;49.152;11.004;2023-05-02T09:24:27;12.30;99.90
9730;DHT22;4904;49.152;11.004;2023-05-02T09:26:59;12.20;99.90
9730;DHT22;4904;49.152;11.004;2023-05-02T09:29:27;12.30;99.90
9730;DHT22;4904;49.152;11.004;2023-05-02T09:32:00;12.60;99.90
9730;DHT22;4904;49.152;11.004;2023-05-02T09:34:28;12.70;99.90
9730;DHT22;4904;49.152;11.004;2023-05-02T09:36:56;12.70;99.90
9730;DHT22;4904;49.152;11.004;2023-05-02T09:39:26;12.80;99.90
9730;DHT22;4904;49.152;11.004;2023-05-02T09:41:54;12.80;99.90
9730;DHT22;4904;49.152;11.004;2023-05-02T09:44:23;12.70;99.90
9730;DHT22;4904;49.152;11.004;2023-05-02T09:46:50;12.80;99.90
9730;DHT22;4904;49.152;11.004;2023-05-02T09:49:18;12.90;99.90
9730;DHT22;4904;49.152;11.004;2023-05-02T09:51:46;13.00;99.90
9730;DHT22;4904;49.152;11.004;2023-05-02T09:54:14;13.10;99.90
9730;DHT22;4904;49.152;11.004;2023-05-02T09:57:01;13.10;99.90
9730;DHT22;4904;49.152;11.004;2023-05-02T09:59:28;13.20;99.90
9730;DHT22;4904;49.152;11.004;2023-05-02T10:01:56;13.40;99.90
9730;DHT22;4904;49.152;11.004;2023-05-02T10:04:23;13.60;99.90
9730;DHT22;4904;49.152;11.004;2023-05-02T10:06:52;13.80;99.90
9730;DHT22;4904;49.152;11.004;2023-05-02T10:09:20;14.00;99.90
9730;DHT22;4904;49.152;11.004;2023-05-02T10:11:50;14.10;99.90
9730;DHT22;4904;49.152;11.004;2023-05-02T10:14:21;13.90;99.90
9730;DHT22;4904;49.152;11.004;2023-05-02T10:16:54;13.90;99.90
9730;DHT22;4904;49.152;11.004;2023-05-02T10:19:29;14.10;99.90
9730;DHT22;4904;49.152;11.004;2023-05-02T10:21:57;14.30;99.90
9730;DHT22;4904;49.152;11.004;2023-05-02T10:24:25;14.50;99.90
9730;DHT22;4904;49.152;11.004;2023-05-02T10:26:53;14.10;99.90
9730;DHT22;4904;49.152;11.004;2023-05-02T10:29:22;14.10;99.90
9730;DHT22;4904;49.152;11.004;2023-05-02T10:31:49;14.10;99.90
9730;DHT22;4904;49.152;11.004;2023-05-02T10:34:17;14.30;99.90
9730;DHT22;4904;49.152;11.004;2023-05-02T10:36:45;14.40;99.90
9730;DHT22;4904;49.152;11.004;2023-05-02T10:39:13;14.40;99.90
9730;DHT22;4904;49.152;11.004;2023-05-02T10:41:41;14.60;99.90
9730;DHT22;4904;49.152;11.004;2023-05-02T10:44:08;14.70;99.90
9730;DHT22;4904;49.152;11.004;2023-05-02T10:46:39;14.90;99.90
9730;DHT22;4904;49.152;11.004;2023-05-02T10:49:08;15.00;99.90
9730;DHT22;4904;49.152;11.004;2023-05-02T10:51:37;15.10;99.90
9730;DHT22;4904;49.152;11.004;2023-05-02T10:54:21;15.10;99.90
9730;DHT22;4904;49.152;11.004;2023-05-02T10:57:01;15.10;99.90
9730;DHT22;4904;49.152;11.004;2023-05-02T10:59:32;15.10;99.90
9730;DHT22;4904;49.152;11.004;2023-05-02T11:02:00;15.40;99.90
9730;DHT22;4904;49.152;11.004;2023-05-02T11:04:58;15.60;99.90
9730;DHT22;4904;49.152;11.004;2023-05-02T11:07:26;15.80;99.90
9730;DHT22;4904;49.152;11.004;2023-05-02T11:09:55;15.80;99.90
9730;DHT22;4904;49.152;11.004;2023-05-02T11:12:43;15.90;99.90
9730;DHT22;4904;49.152;11.004;2023-05-02T11:15:11;16.10;99.90
9730;DHT22;4904;49.152;11.004;2023-05-02T11:17:58;15.80;99.90
9730;DHT22;4904;49.152;11.004;2023-05-02T11:20:27;16.00;99.90
9730;DHT22;4904;49.152;11.004;2023-05-02T11:22:58;16.30;99.90
9730;DHT22;4904;49.152;11.004;2023-05-02T11:25:47;16.50;99.90
9730;DHT22;4904;49.152;11.004;2023-05-02T11:28:42;16.60;99.90
9730;DHT22;4904;49.152;11.004;2023-05-02T11:34:41;16.80;99.90
9730;DHT22;4904;49.152;11.004;2023-05-02T11:37:11;17.10;99.90
9730;DHT22;4904;49.152;11.004;2023-05-02T11:39:39;17.20;99.90
9730;DHT22;4904;49.152;11.004;2023-05-02T11:42:06;16.90;99.90
9730;DHT22;4904;49.152;11.004;2023-05-02T11:44:33;16.90;99.90
9730;DHT22;4904;49.152;11.004;2023-05-02T11:47:01;16.90;99.90
9730;DHT22;4904;49.152;11.004;2023-05-02T11:49:30;16.90;99.90
9730;DHT22;4904;49.152;11.004;2023-05-02T11:51:58;16.90;99.90
9730;DHT22;4904;49.152;11.004;2023-05-02T11:54:26;16.90;99.90
9730;DHT22;4904;49.152;11.004;2023-05-02T11:56:53;16.10;99.90
9730;DHT22;4904;49.152;11.004;2023-05-02T11:59:20;15.90;99.90
9730;DHT22;4904;49.152;11.004;2023-05-02T12:01:48;16.10;99.90
9730;DHT22;4904;49.152;11.004;2023-05-02T12:04:15;16.20;99.90
9730;DHT22;4904;49.152;11.004;2023-05-02T12:06:56;16.30;99.90
9730;DHT22;4904;49.152;11.004;2023-05-02T12:09:23;15.70;99.90
9730;DHT22;4904;49.152;11.004;2023-05-02T12:11:51;15.30;99.90
9730;DHT22;4904;49.152;11.004;2023-05-02T12:14:26;15.40;99.90
9730;DHT22;4904;49.152;11.004;2023-05-02T12:16:53;15.40;99.90
9730;DHT22;4904;49.152;11.004;2023-05-02T12:19:21;15.10;99.90
9730;DHT22;4904;49.152;11.004;2023-05-02T12:21:48;15.10;99.90
9730;DHT22;4904;49.152;11.004;2023-05-02T12:24:18;15.10;99.90
9730;DHT22;4904;49.152;11.004;2023-05-02T12:26:46;15.00;99.90
9730;DHT22;4904;49.152;11.004;2023-05-02T12:29:13;15.10;99.90
9730;DHT22;4904;49.152;11.004;2023-05-02T12:31:49;15.00;99.90
9730;DHT22;4904;49.152;11.004;2023-05-02T12:34:31;14.50;99.90
9730;DHT22;4904;49.152;11.004;2023-05-02T12:36:58;14.20;99.90
9730;DHT22;4904;49.152;11.004;2023-05-02T12:39:35;13.90;99.90
9730;DHT22;4904;49.152;11.004;2023-05-02T12:42:09;13.70;99.90
9730;DHT22;4904;49.152;11.004;2023-05-02T12:44:37;13.70;99.90
9730;DHT22;4904;49.152;11.004;2023-05-02T12:47:05;13.80;99.90
9730;DHT22;4904;49.152;11.004;2023-05-02T12:49:32;13.30;99.90
9730;DHT22;4904;49.152;11.004;2023-05-02T12:51:59;13.10;99.90
9730;DHT22;4904;49.152;11.004;2023-05-02T12:54:26;13.10;99.90
9730;DHT22;4904;49.152;11.004;2023-05-02T12:56:55;13.00;99.90
9730;DHT22;4904;49.152;11.004;2023-05-02T12:59:26;13.20;99.90
9730;DHT22;4904;49.152;11.004;2023-05-02T13:01:54;13.40;99.90
9730;DHT22;4904;49.152;11.004;2023-05-02T13:04:32;13.60;99.90
9730;DHT22;4904;49.152;11.004;2023-05-02T13:06:59;13.80;99.90
9730;DHT22;4904;49.152;11.004;2023-05-02T13:09:26;14.00;99.90
9730;DHT22;4904;49.152;11.004;2023-05-02T13:11:54;14.20;99.90
9730;DHT22;4904;49.152;11.004;2023-05-02T13:14:22;14.20;99.90
9730;DHT22;4904;49.152;11.004;2023-05-02T13:16:49;14.30;99.90
9730;DHT22;4904;49.152;11.004;2023-05-02T13:19:17;14.40;99.90
9730;DHT22;4904;49.152;11.004;2023-05-02T13:21:45;14.60;99.90
9730;DHT22;4904;49.152;11.004;2023-05-02T13:24:12;14.80;99.90
9730;DHT22;4904;49.152;11.004;2023-05-02T13:26:39;14.90;99.90
9730;DHT22;4904;49.152;11.004;2023-05-02T13:29:08;15.00;99.90
9730;DHT22;4904;49.152;11.004;2023-05-02T13:31:37;15.20;99.90
9730;DHT22;4904;49.152;11.004;2023-05-02T13:34:04;15.50;99.90
9730;DHT22;4904;49.152;11.004;2023-05-02T13:36:31;15.60;99.90
9730;DHT22;4904;49.152;11.004;2023-05-02T13:38:59;15.90;99.90
9730;DHT22;4904;49.152;11.004;2023-05-02T13:41:27;16.20;99.90
9730;DHT22;4904;49.152;11.004;2023-05-02T13:43:54;16.40;99.90
9730;DHT22;4904;49.152;11.004;2023-05-02T13:46:22;16.50;99.90
9730;DHT22;4904;49.152;11.004;2023-05-02T13:48:49;16.10;99.90
9730;DHT22;4904;49.152;11.004;2023-05-02T13:51:16;15.40;99.90
9730;DHT22;4904;49.152;11.004;2023-05-02T13:53:43;14.90;99.90
9730;DHT22;4904;49.152;11.004;2023-05-02T13:56:11;14.40;99.90
9730;DHT22;4904;49.152;11.004;2023-05-02T13:58:38;14.00;99.90
9730;DHT22;4904;49.152;11.004;2023-05-02T14:01:05;13.60;99.90
9730;DHT22;4904;49.152;11.004;2023-05-02T14:03:33;12.70;99.90
9730;DHT22;4904;49.152;11.004;2023-05-02T14:06:00;12.30;99.90
9730;DHT22;4904;49.152;11.004;2023-05-02T14:08:27;12.20;99.90
9730;DHT22;4904;49.152;11.004;2023-05-02T14:10:54;12.10;99.90
9730;DHT22;4904;49.152;11.004;2023-05-02T14:13:21;12.20;99.90
9730;DHT22;4904;49.152;11.004;2023-05-02T14:15:49;12.20;99.90
9730;DHT22;4904;49.152;11.004;2023-05-02T14:18:16;12.40;99.90
9730;DHT22;4904;49.152;11.004;2023-05-02T14:20:45;12.00;99.90
9730;DHT22;4904;49.152;11.004;2023-05-02T14:23:12;11.90;99.90
9730;DHT22;4904;49.152;11.004;2023-05-02T14:25:40;12.00;99.90
9730;DHT22;4904;49.152;11.004;2023-05-02T14:28:07;12.20;99.90
9730;DHT22;4904;49.152;11.004;2023-05-02T14:30:34;12.50;99.90
9730;DHT22;4904;49.152;11.004;2023-05-02T14:33:00;12.80;99.90
9730;DHT22;4904;49.152;11.004;2023-05-02T14:35:27;13.10;99.90
9730;DHT22;4904;49.152;11.004;2023-05-02T14:37:56;13.10;99.90
9730;DHT22;4904;49.152;11.004;2023-05-02T14:40:23;13.30;99.90
9730;DHT22;4904;49.152;11.004;2023-05-02T14:42:50;13.40;99.90
9730;DHT22;4904;49.152;11.004;2023-05-02T14:45:17;13.50;99.90
9730;DHT22;4904;49.152;11.004;2023-05-02T14:47:46;13.80;99.90
9730;DHT22;4904;49.152;11.004;2023-05-02T14:50:13;14.00;99.90
9730;DHT22;4904;49.152;11.004;2023-05-02T14:52:40;14.30;99.90
9730;DHT22;4904;49.152;11.004;2023-05-02T14:55:12;14.60;99.90
9730;DHT22;4904;49.152;11.004;2023-05-02T14:57:39;14.60;99.90
9730;DHT22;4904;49.152;11.004;2023-05-02T15:00:07;14.90;99.90
9730;DHT22;4904;49.152;11.004;2023-05-02T15:02:35;15.60;99.90
9730;DHT22;4904;49.152;11.004;2023-05-02T15:05:02;16.40;99.90
9730;DHT22;4904;49.152;11.004;2023-05-02T15:07:30;17.40;99.90
9730;DHT22;4904;49.152;11.004;2023-05-02T15:09:58;18.50;99.90
9730;DHT22;4904;49.152;11.004;2023-05-02T15:12:27;19.30;99.90
9730;DHT22;4904;49.152;11.004;2023-05-02T15:14:54;20.30;99.90
9730;DHT22;4904;49.152;11.004;2023-05-02T15:17:21;21.20;99.90
9730;DHT22;4904;49.152;11.004;2023-05-02T15:19:48;22.00;99.90
9730;DHT22;4904;49.152;11.004;2023-05-02T15:22:16;22.70;99.90
9730;DHT22;4904;49.152;11.004;2023-05-02T15:24:44;23.20;99.90
9730;DHT22;4904;49.152;11.004;2023-05-02T15:27:11;23.30;99.90
9730;DHT22;4904;49.152;11.004;2023-05-02T15:29:40;22.90;99.90
9730;DHT22;4904;49.152;11.004;2023-05-02T15:32:06;22.30;99.90
9730;DHT22;4904;49.152;11.004;2023-05-02T15:34:34;21.90;99.90
9730;DHT22;4904;49.152;11.004;2023-05-02T15:37:01;19.80;99.90
9730;DHT22;4904;49.152;11.004;2023-05-02T15:39:28;20.20;99.90
9730;DHT22;4904;49.152;11.004;2023-05-02T15:41:55;20.70;99.90
9730;DHT22;4904;49.152;11.004;2023-05-02T15:44:22;20.00;99.90
9730;DHT22;4904;49.152;11.004;2023-05-02T15:46:52;20.70;99.90
9730;DHT22;4904;49.152;11.004;2023-05-02T15:49:20;21.00;99.90
9730;DHT22;4904;49.152;11.004;2023-05-02T15:51:49;21.60;99.90
9730;DHT22;4904;49.152;11.004;2023-05-02T15:54:16;21.80;99.90
9730;DHT22;4904;49.152;11.004;2023-05-02T15:56:43;19.50;99.90
9730;DHT22;4904;49.152;11.004;2023-05-02T15:59:11;19.10;99.90
9730;DHT22;4904;49.152;11.004;2023-05-02T16:01:38;20.20;99.90
9730;DHT22;4904;49.152;11.004;2023-05-02T16:04:06;21.80;99.90
9730;DHT22;4904;49.152;11.004;2023-05-02T16:06:34;22.50;99.90